Time;durP1;ratioP1;P1;durP2;ratioP2;P2;SDS_P1;SDS_P2;PMS_P1;PMS_P2;Temp;Humidity;BMP_temperature;BMP_pressure;BME280_temperature;BME280_humidity;BME280_pressure;Samples;Min_cycle;Max_cycle;Signal;HPM_P1;HPM_P2
2022/08/18 00:00:12;;;;;;;8.17;5.60;;;;;;;18.46;97.60;98342.56;4974419;28;20236;-52
2022/08/18 00:02:39;;;;;;;7.60;6.40;;;;;;;18.42;98.62;98347.44;4977032;28;20296;-51
2022/08/18 00:05:08;;;;;;;8.43;6.03;;;;;;;18.40;99.00;98346.84;4975765;28;20225;-51
2022/08/18 00:07:36;;;;;;;9.10;5.80;;;;;;;18.36;98.94;98342.19;4965584;28;20663;-52
2022/08/18 00:10:04;;;;;;;7.63;5.87;;;;;;;18.36;99.06;98340.34;4964837;28;20284;-54
2022/08/18 00:12:35;;;;;;;8.30;5.80;;;;;;;18.36;99.48;98337.69;4963037;28;20242;-51
2022/08/18 00:15:04;;;;;;;6.63;5.80;;;;;;;18.35;99.95;98341.34;4968429;28;20236;-51
2022/08/18 00:17:31;;;;;;;9.67;6.70;;;;;;;18.35;99.23;98336.06;4973188;28;20775;-52
2022/08/18 00:19:58;;;;;;;8.53;6.07;;;;;;;18.35;99.15;98338.72;4970822;28;20314;-52
2022/08/18 00:22:26;;;;;;;7.03;6.40;;;;;;;18.29;99.20;98327.16;4975651;28;20636;-51
2022/08/18 00:24:55;;;;;;;6.47;5.83;;;;;;;18.25;100.00;98330.41;4961138;28;20255;-52
2022/08/18 00:27:24;;;;;;;9.03;6.47;;;;;;;18.24;100.00;98334.91;4976785;28;20664;-53
2022/08/18 00:29:52;;;;;;;6.77;6.07;;;;;;;18.23;100.00;98337.72;4968859;28;20242;-51
2022/08/18 00:32:21;;;;;;;6.90;6.20;;;;;;;18.20;100.00;98336.34;4979268;28;20243;-50
2022/08/18 00:34:48;;;;;;;6.83;6.13;;;;;;;18.14;100.00;98332.66;4979397;28;20358;-51
2022/08/18 00:37:14;;;;;;;6.83;6.23;;;;;;;18.10;100.00;98336.75;4973229;28;20586;-51
2022/08/18 00:40:01;;;;;;;9.67;7.10;;;;;;;18.11;100.00;98338.38;4974347;28;20645;-53
2022/08/18 00:42:30;;;;;;;10.37;6.60;;;;;;;18.16;100.00;98335.13;4969764;28;20267;-51
2022/08/18 00:44:58;;;;;;;9.07;6.60;;;;;;;18.08;100.00;98333.50;4985116;28;20672;-52
2022/08/18 00:47:27;;;;;;;8.17;6.07;;;;;;;18.08;100.00;98336.13;4979558;28;20239;-52
2022/08/18 00:49:53;;;;;;;8.87;6.57;;;;;;;18.11;100.00;98334.94;4977118;28;20247;-53
2022/08/18 00:52:23;;;;;;;7.80;7.10;;;;;;;18.09;100.00;98340.41;4972570;28;20242;-51
2022/08/18 00:54:52;;;;;;;7.70;6.20;;;;;;;18.10;100.00;98342.03;4970557;28;20247;-50
2022/08/18 00:57:22;;;;;;;7.23;5.90;;;;;;;18.15;100.00;98331.66;4979408;28;20237;-51
2022/08/18 00:59:54;;;;;;;7.00;6.30;;;;;;;18.13;100.00;98332.91;4965195;28;20228;-51
2022/08/18 01:02:26;;;;;;;8.30;6.27;;;;;;;18.07;100.00;98329.22;4971266;28;20235;-51
2022/08/18 01:04:57;;;;;;;7.10;5.83;;;;;;;18.05;100.00;98333.13;4955562;28;20233;-51
2022/08/18 01:07:28;;;;;;;6.67;5.97;;;;;;;18.03;100.00;98341.22;4973008;28;20243;-52
2022/08/18 01:09:58;;;;;;;8.60;6.03;;;;;;;18.00;100.00;98347.75;4967710;28;20298;-51
2022/08/18 01:12:26;;;;;;;7.77;6.20;;;;;;;17.97;100.00;98348.13;4978003;28;20239;-52
2022/08/18 01:14:54;;;;;;;6.77;5.87;;;;;;;17.91;100.00;98354.22;4970640;28;20692;-52
2022/08/18 01:23:00;;;;;;;5.40;4.83;;;;;;;17.72;100.00;98347.97;4974123;28;20245;-51
2022/08/18 01:28:11;;;;;;;6.20;4.80;;;;;;;17.68;100.00;98341.47;4969918;28;20728;-52
2022/08/18 01:30:47;;;;;;;6.83;4.97;;;;;;;17.64;100.00;98343.69;4975637;28;20255;-51
2022/08/18 01:33:14;;;;;;;5.80;5.10;;;;;;;17.63;100.00;98346.53;4974782;28;20233;-50
2022/08/18 01:35:48;;;;;;;5.40;4.90;;;;;;;17.64;100.00;98341.03;4972174;28;20285;-53
2022/08/18 01:38:17;;;;;;;6.77;5.60;;;;;;;17.61;100.00;98344.09;4970682;28;20226;-51
2022/08/18 01:40:44;;;;;;;5.67;4.97;;;;;;;17.60;99.06;98341.66;4972586;28;20223;-54
2022/08/18 01:43:11;;;;;;;5.37;4.70;;;;;;;17.55;99.62;98339.63;4961047;28;20327;-52
2022/08/18 01:45:38;;;;;;;7.17;5.20;;;;;;;17.52;100.00;98337.38;4971554;28;20230;-53
2022/08/18 01:48:05;;;;;;;5.50;5.00;;;;;;;17.56;100.00;98338.59;4975308;28;20226;-51
2022/08/18 01:50:33;;;;;;;5.17;4.67;;;;;;;17.51;100.00;98338.41;4964544;28;20238;-53
2022/08/18 01:53:00;;;;;;;7.47;5.10;;;;;;;17.52;100.00;98326.84;4975896;28;20612;-51
2022/08/18 01:55:29;;;;;;;6.27;5.43;;;;;;;17.56;99.61;98322.78;4969854;28;20246;-51
2022/08/18 01:57:55;;;;;;;4.87;4.37;;;;;;;17.56;99.32;98328.88;4965899;28;20219;-51
2022/08/18 02:00:23;;;;;;;6.80;4.70;;;;;;;17.62;99.07;98327.25;4988519;28;20245;-51
2022/08/18 02:02:51;;;;;;;6.60;5.00;;;;;;;17.66;97.77;98338.22;4969260;28;20235;-53
2022/08/18 02:05:23;;;;;;;4.53;4.13;;;;;;;17.64;98.72;98332.31;4977133;28;20680;-51
2022/08/18 02:07:49;;;;;;;6.93;4.50;;;;;;;17.55;98.72;98326.44;4972269;28;20285;-51
2022/08/18 02:10:16;;;;;;;6.27;4.60;;;;;;;17.54;99.08;98330.91;4976583;28;20292;-51
2022/08/18 02:13:03;;;;;;;5.63;5.10;;;;;;;17.52;99.53;98327.66;4979813;28;20225;-52
2022/08/18 02:15:30;;;;;;;8.90;5.93;;;;;;;17.63;100.00;98322.78;4977210;28;20235;-50
2022/08/18 02:17:57;;;;;;;6.53;5.03;;;;;;;17.59;99.06;98330.28;4976736;28;20226;-50
2022/08/18 02:20:24;;;;;;;5.67;5.10;;;;;;;17.52;99.15;98330.31;4967627;28;20226;-51
2022/08/18 02:22:52;;;;;;;6.87;4.90;;;;;;;17.47;98.68;98319.53;4975390;28;20315;-51
2022/08/18 02:25:19;;;;;;;5.00;4.50;;;;;;;17.48;99.57;98321.16;4971378;28;20326;-51
2022/08/18 02:27:46;;;;;;;6.00;5.33;;;;;;;17.47;99.07;98319.53;4977624;28;20619;-52
2022/08/18 02:30:18;;;;;;;6.00;4.60;;;;;;;17.54;98.78;98311.59;4975032;28;20317;-51
2022/08/18 02:32:45;;;;;;;6.10;4.63;;;;;;;17.52;97.06;98321.56;4977897;28;20315;-53
2022/08/18 02:35:12;;;;;;;5.37;4.87;;;;;;;17.52;97.23;98314.47;4980579;28;20276;-52
2022/08/18 02:37:39;;;;;;;7.63;4.80;;;;;;;17.56;99.43;98317.50;4975404;28;20763;-52
2022/08/18 02:40:08;;;;;;;5.13;4.63;;;;;;;17.49;99.36;98304.31;4966582;28;20235;-52
2022/08/18 02:42:37;;;;;;;6.27;4.80;;;;;;;17.48;99.33;98304.53;4967911;28;20563;-51
2022/08/18 02:45:04;;;;;;;5.13;4.43;;;;;;;17.43;99.25;98296.41;4972171;28;20251;-53
2022/08/18 02:47:32;;;;;;;5.40;4.90;;;;;;;17.41;100.00;98289.53;4971481;28;20239;-51
2022/08/18 02:49:59;;;;;;;6.37;4.67;;;;;;;17.41;100.00;98286.88;4971996;28;20255;-52
2022/08/18 02:52:28;;;;;;;4.80;4.40;;;;;;;17.38;100.00;98287.28;4981880;28;20781;-51
2022/08/18 02:54:55;;;;;;;4.90;4.40;;;;;;;17.41;100.00;98291.34;4982965;28;20713;-50
2022/08/18 02:57:22;;;;;;;6.07;4.70;;;;;;;17.40;100.00;98284.44;4976930;28;20239;-50
2022/08/18 02:59:49;;;;;;;4.73;4.27;;;;;;;17.35;100.00;98285.06;4973769;28;20574;-52
2022/08/18 03:02:15;;;;;;;6.50;4.83;;;;;;;17.35;100.00;98287.69;4979272;28;21381;-51
2022/08/18 03:04:44;;;;;;;5.03;4.33;;;;;;;17.27;100.00;98279.97;4968529;28;20569;-51
2022/08/18 03:07:10;;;;;;;6.67;4.97;;;;;;;17.26;100.00;98273.88;4972282;28;20298;-51
2022/08/18 03:09:38;;;;;;;5.47;4.57;;;;;;;17.20;100.00;98271.25;4969228;28;20235;-54
2022/08/18 03:12:07;;;;;;;5.20;4.70;;;;;;;17.16;100.00;98270.03;4974007;28;20244;-51
2022/08/18 03:14:35;;;;;;;5.07;4.60;;;;;;;17.16;100.00;98275.31;4980515;28;20910;-51
2022/08/18 03:17:04;;;;;;;5.47;4.70;;;;;;;17.19;100.00;98270.41;4979160;28;20239;-52
2022/08/18 03:19:32;;;;;;;5.30;4.80;;;;;;;17.22;100.00;98270.03;4973680;28;20241;-51
2022/08/18 03:22:00;;;;;;;5.67;4.57;;;;;;;17.25;100.00;98269.63;4970972;28;20311;-51
2022/08/18 03:24:28;;;;;;;4.90;4.40;;;;;;;17.31;98.78;98272.47;4982298;28;21245;-51
2022/08/18 03:26:56;;;;;;;5.80;4.70;;;;;;;17.25;97.86;98266.97;4970554;28;20231;-51
2022/08/18 03:29:23;;;;;;;5.60;4.53;;;;;;;17.23;99.88;98269.00;4971643;28;20235;-51
2022/08/18 03:31:50;;;;;;;5.47;4.50;;;;;;;17.26;100.00;98271.25;4977514;28;20332;-51
2022/08/18 03:34:19;;;;;;;6.67;4.80;;;;;;;17.27;100.00;98261.50;4979458;28;20902;-52
2022/08/18 03:36:46;;;;;;;6.30;4.80;;;;;;;17.26;99.13;98259.91;4964310;28;20232;-53
2022/08/18 03:39:15;;;;;;;5.53;4.47;;;;;;;17.20;99.35;98255.44;4967843;28;20237;-51
2022/08/18 03:41:44;;;;;;;5.83;4.77;;;;;;;17.16;99.82;98265.56;4978234;28;20585;-51
2022/08/18 03:44:11;;;;;;;5.37;4.80;;;;;;;17.18;100.00;98260.09;4979464;28;20227;-53
2022/08/18 03:46:41;;;;;;;6.27;5.00;;;;;;;17.18;100.00;98260.09;4984446;28;20233;-51
2022/08/18 03:49:08;;;;;;;7.07;4.63;;;;;;;17.20;100.00;98258.84;4980629;28;20223;-51
2022/08/18 03:51:35;;;;;;;7.33;4.10;;;;;;;17.15;100.00;98258.66;4979131;28;20283;-53
2022/08/18 03:54:04;;;;;;;5.53;4.83;;;;;;;17.16;100.00;98260.28;4972003;28;20246;-51
2022/08/18 03:56:36;;;;;;;5.73;5.13;;;;;;;17.18;100.00;98268.78;4965699;28;20232;-51
2022/08/18 03:59:07;;;;;;;5.43;4.90;;;;;;;17.23;100.00;98278.75;4965560;28;20577;-50
2022/08/18 04:01:38;;;;;;;6.07;4.73;;;;;;;17.26;100.00;98287.06;4978475;28;20239;-53
2022/08/18 04:04:07;;;;;;;5.77;5.17;;;;;;;17.21;100.00;98289.50;4978684;28;20243;-51
2022/08/18 04:06:37;;;;;;;6.67;4.87;;;;;;;17.25;100.00;98288.06;4976996;28;20627;-51
2022/08/18 04:09:07;;;;;;;5.43;4.47;;;;;;;17.29;99.93;98290.31;4972850;28;20247;-54
2022/08/18 04:11:37;;;;;;;5.20;4.70;;;;;;;17.36;99.17;98283.22;4970207;28;20234;-50
2022/08/18 04:14:04;;;;;;;6.87;4.30;;;;;;;17.42;98.63;98285.03;4981436;28;20233;-52
2022/08/18 04:16:31;;;;;;;5.87;5.03;;;;;;;17.43;99.08;98288.50;4979825;28;20326;-52
2022/08/18 04:19:02;;;;;;;5.80;4.97;;;;;;;17.41;98.88;98293.97;4976499;28;20595;-51
2022/08/18 04:21:51;;;;;;;7.37;4.83;;;;;;;17.34;99.82;98291.34;4973515;28;20229;-52
2022/08/18 04:24:18;;;;;;;7.47;5.03;;;;;;;17.36;100.00;98291.13;4972197;28;20242;-53
2022/08/18 04:26:47;;;;;;;6.63;5.03;;;;;;;17.33;100.00;98292.34;4961557;28;20642;-51
2022/08/18 04:29:16;;;;;;;5.70;5.10;;;;;;;17.39;100.00;98288.09;4974779;28;20227;-51
2022/08/18 04:31:43;;;;;;;5.10;4.60;;;;;;;17.41;100.00;98294.78;4972268;28;20247;-51
2022/08/18 04:34:11;;;;;;;6.83;5.00;;;;;;;17.38;100.00;98305.75;4973605;28;20226;-52
2022/08/18 04:36:37;;;;;;;6.50;5.00;;;;;;;17.38;100.00;98305.75;4961930;28;20214;-52
2022/08/18 04:39:07;;;;;;;6.53;5.60;;;;;;;17.35;100.00;98311.44;4968488;28;20243;-52
2022/08/18 04:41:35;;;;;;;5.77;4.57;;;;;;;17.37;100.00;98316.50;4968158;28;20233;-53
2022/08/18 04:44:06;;;;;;;6.20;4.57;;;;;;;17.38;100.00;98315.47;4963030;28;20567;-51
2022/08/18 04:46:38;;;;;;;6.63;5.00;;;;;;;17.37;100.00;98314.69;4970056;28;20235;-53
2022/08/18 04:49:05;;;;;;;5.90;5.13;;;;;;;17.37;100.00;98325.25;4972453;28;20239;-52
2022/08/18 04:51:32;;;;;;;5.30;4.80;;;;;;;17.36;100.00;98325.41;4970354;28;20316;-51
2022/08/18 04:53:59;;;;;;;9.17;5.03;;;;;;;17.40;99.65;98335.38;4974057;28;20234;-51
2022/08/18 04:56:29;;;;;;;5.83;5.00;;;;;;;17.41;99.96;98341.47;4974070;28;20314;-53
2022/08/18 04:59:01;;;;;;;6.00;4.77;;;;;;;17.41;99.70;98331.72;4967597;28;20232;-51
2022/08/18 05:01:33;;;;;;;5.63;4.90;;;;;;;17.46;100.00;98343.50;4969623;28;20239;-51
2022/08/18 05:04:00;;;;;;;5.57;4.53;;;;;;;17.45;100.00;98347.16;4974381;28;20725;-52
2022/08/18 05:06:28;;;;;;;6.60;4.97;;;;;;;17.43;100.00;98349.19;4969125;28;20235;-51
2022/08/18 05:08:57;;;;;;;6.20;5.00;;;;;;;17.42;100.00;98348.34;4961754;28;20594;-51
2022/08/18 05:11:27;;;;;;;7.20;4.97;;;;;;;17.46;100.00;98348.78;4962610;28;20259;-53
2022/08/18 05:13:56;;;;;;;6.67;4.73;;;;;;;17.51;100.00;98360.34;4979802;28;20248;-54
2022/08/18 05:16:23;;;;;;;5.43;4.90;;;;;;;17.56;100.00;98354.44;4971943;28;20239;-52
2022/08/18 05:18:53;;;;;;;5.43;4.70;;;;;;;17.61;99.60;98356.50;4972179;28;20235;-54
2022/08/18 05:21:21;;;;;;;5.90;4.60;;;;;;;17.66;97.71;98359.34;4956590;28;20232;-54
2022/08/18 05:23:50;;;;;;;6.33;5.53;;;;;;;17.68;98.89;98366.00;4966975;28;20240;-53
2022/08/18 05:26:18;;;;;;;5.47;4.97;;;;;;;17.66;99.72;98362.75;4967321;28;20232;-51
2022/08/18 05:28:46;;;;;;;9.33;5.17;;;;;;;17.68;99.75;98366.00;4964082;28;20237;-50
2022/08/18 05:31:15;;;;;;;6.40;5.47;;;;;;;17.62;100.00;98366.81;4967671;28;20661;-51
2022/08/18 05:33:42;;;;;;;8.20;5.63;;;;;;;17.58;100.00;98356.91;4966449;28;20227;-52
2022/08/18 05:36:27;;;;;;;8.30;5.40;;;;;;;17.57;100.00;98348.16;4965359;28;20294;-55
2022/08/18 05:39:02;;;;;;;7.30;5.50;;;;;;;17.56;100.00;98352.63;4965348;28;20294;-51
2022/08/18 05:41:34;;;;;;;8.90;5.17;;;;;;;17.53;100.00;98345.13;4962470;28;20251;-51
2022/08/18 05:44:02;;;;;;;8.53;5.63;;;;;;;17.52;100.00;98351.41;4959365;28;20280;-51
2022/08/18 05:46:40;;;;;;;6.83;5.20;;;;;;;17.52;100.00;98348.78;4968607;28;20226;-51
2022/08/18 05:49:07;;;;;;;7.87;5.53;;;;;;;17.55;100.00;98347.53;4968518;28;20224;-51
2022/08/18 05:51:41;;;;;;;8.07;5.13;;;;;;;17.56;100.00;98341.25;4968662;28;20239;-51
2022/08/18 05:56:56;;;;;;;8.80;6.03;;;;;;;17.65;100.00;98341.88;4966945;28;20214;-54
2022/08/18 05:59:27;;;;;;;9.30;5.93;;;;;;;17.53;100.00;98336.38;4976259;28;20246;-51
2022/08/18 06:02:02;;;;;;;6.30;5.33;;;;;;;17.53;100.00;98339.00;4976394;28;20310;-52
2022/08/18 06:04:47;;;;;;;9.60;6.20;;;;;;;17.54;100.00;98330.09;4970328;28;20231;-54
2022/08/18 06:07:18;;;;;;;7.33;5.70;;;;;;;17.52;100.00;98343.50;4970998;28;20243;-51
2022/08/18 06:09:49;;;;;;;9.03;5.80;;;;;;;17.59;100.00;98340.03;4966651;28;20239;-52
2022/08/18 06:12:25;;;;;;;11.57;6.03;;;;;;;17.62;100.00;98335.16;4975317;28;20250;-54
2022/08/18 06:15:00;;;;;;;7.20;5.50;;;;;;;17.65;100.00;98332.09;4969656;28;20581;-51
2022/08/18 06:17:57;;;;;;;7.10;6.30;;;;;;;17.69;100.00;98335.16;4975510;28;20237;-51
2022/08/18 06:20:30;;;;;;;10.60;6.17;;;;;;;17.75;100.00;98330.88;4973694;28;20334;-54
2022/08/18 06:23:16;;;;;;;10.70;6.80;;;;;;;17.82;100.00;98334.34;4967197;28;20254;-51
2022/08/18 06:25:57;;;;;;;8.60;6.10;;;;;;;17.95;100.00;98330.88;4974639;28;20322;-51
2022/08/18 06:28:26;;;;;;;8.33;5.33;;;;;;;18.05;100.00;98331.28;4978499;28;20235;-53
2022/08/18 06:31:13;;;;;;;11.57;6.83;;;;;;;18.17;100.00;98334.09;4978813;28;20226;-51
2022/08/18 06:33:50;;;;;;;9.87;6.03;;;;;;;18.32;100.00;98333.84;4976207;28;20239;-53
2022/08/18 06:36:35;;;;;;;9.00;4.93;;;;;;;18.41;100.00;98337.09;4963992;28;20230;-52
2022/08/18 06:39:14;;;;;;;10.40;6.37;;;;;;;18.59;100.00;98341.69;4968877;28;20279;-53
2022/08/18 06:41:47;;;;;;;8.67;6.30;;;;;;;18.72;100.00;98356.66;4968566;28;20236;-51
2022/08/18 06:44:28;;;;;;;7.30;5.40;;;;;;;18.78;100.00;98347.88;4978837;28;20227;-51
2022/08/18 06:47:04;;;;;;;8.80;5.80;;;;;;;18.87;100.00;98359.84;4979691;28;20867;-51
2022/08/18 06:49:45;;;;;;;9.67;5.73;;;;;;;18.84;100.00;98364.75;4975338;28;20235;-54
2022/08/18 06:52:28;;;;;;;8.53;6.43;;;;;;;18.69;99.90;98357.06;4973614;28;20268;-52
2022/08/18 06:54:59;;;;;;;7.17;5.47;;;;;;;18.68;100.00;98363.38;4966970;28;20236;-53
2022/08/18 06:57:29;;;;;;;8.73;6.03;;;;;;;18.60;100.00;98369.75;4974347;28;20239;-52
2022/08/18 06:59:59;;;;;;;9.70;5.70;;;;;;;18.64;100.00;98378.03;4967326;28;20324;-52
2022/08/18 07:02:39;;;;;;;10.60;6.40;;;;;;;18.67;100.00;98375.81;4958059;28;20260;-52
2022/08/18 07:05:08;;;;;;;7.57;5.73;;;;;;;18.68;100.00;98382.72;4956158;28;20263;-51
2022/08/18 07:07:37;;;;;;;6.63;5.40;;;;;;;18.67;100.00;98378.44;4972439;28;20241;-52
2022/08/18 07:10:27;;;;;;;8.80;5.90;;;;;;;18.58;100.00;98383.16;4978565;28;20243;-51
2022/08/18 07:13:07;;;;;;;10.37;6.47;;;;;;;18.57;100.00;98386.00;4968177;28;20228;-54
2022/08/18 07:15:34;;;;;;;9.97;6.33;;;;;;;18.57;100.00;98396.59;4977255;28;20238;-52
2022/08/18 07:18:05;;;;;;;7.97;5.47;;;;;;;18.49;100.00;98389.72;4976998;28;20633;-54
2022/08/18 07:20:43;;;;;;;10.70;7.13;;;;;;;18.47;100.00;98386.47;4980953;28;20579;-51
2022/08/18 07:23:23;;;;;;;13.70;6.80;;;;;;;18.44;100.00;98384.22;4967681;28;20290;-54
2022/08/18 07:25:59;;;;;;;13.17;7.73;;;;;;;18.44;100.00;98373.66;4974792;28;20231;-51
2022/08/18 07:28:33;;;;;;;11.63;8.47;;;;;;;18.51;100.00;98385.03;4977505;28;20315;-51
2022/08/18 07:31:13;;;;;;;11.33;8.03;;;;;;;18.57;100.00;98391.28;4973217;28;20237;-51
2022/08/18 07:33:45;;;;;;;10.53;7.63;;;;;;;18.60;100.00;98398.81;4962695;28;20267;-51
2022/08/18 07:36:15;;;;;;;13.90;9.07;;;;;;;18.54;100.00;98392.53;4969186;28;20774;-51
2022/08/18 07:38:48;;;;;;;13.30;8.53;;;;;;;18.54;100.00;98386.44;4972473;28;20229;-52
2022/08/18 07:41:19;;;;;;;12.53;8.37;;;;;;;18.53;100.00;98393.56;4960241;28;20264;-52
2022/08/18 07:43:58;;;;;;;12.10;7.63;;;;;;;18.44;100.00;98395.59;4971548;28;20560;-51
2022/08/18 07:46:32;;;;;;;13.73;8.37;;;;;;;18.47;100.00;98398.84;4965975;28;20227;-51
2022/08/18 07:49:01;;;;;;;14.63;8.10;;;;;;;18.48;100.00;98397.81;4962718;28;20234;-53
2022/08/18 07:51:42;;;;;;;12.93;7.87;;;;;;;18.57;100.00;98396.59;4970624;28;20240;-53
2022/08/18 07:54:18;;;;;;;17.50;8.10;;;;;;;18.65;100.00;98387.59;4962132;28;20245;-51
2022/08/18 07:56:54;;;;;;;13.63;8.00;;;;;;;18.76;100.00;98386.16;4969868;28;20245;-53
2022/08/18 07:59:29;;;;;;;13.00;7.77;;;;;;;18.85;100.00;98375.13;4979426;28;20230;-51
2022/08/18 08:02:10;;;;;;;10.47;7.47;;;;;;;19.06;100.00;98385.63;4976575;28;20243;-52
2022/08/18 08:04:43;;;;;;;9.27;6.50;;;;;;;19.04;100.00;98380.53;4974682;28;20428;-51
2022/08/18 08:07:14;;;;;;;9.20;6.90;;;;;;;19.10;100.00;98392.91;4977922;28;20224;-51
2022/08/18 08:09:46;;;;;;;9.00;7.07;;;;;;;19.19;100.00;98393.47;4972873;28;20224;-51
2022/08/18 08:12:24;;;;;;;11.73;7.80;;;;;;;19.26;100.00;98396.88;4961656;28;22442;-51
2022/08/18 08:15:00;;;;;;;11.67;7.57;;;;;;;19.35;100.00;98401.94;4978686;28;20230;-53
2022/08/18 08:17:34;;;;;;;9.90;6.57;;;;;;;19.45;100.00;98396.97;4973528;28;20236;-51
2022/08/18 08:20:14;;;;;;;8.40;6.83;;;;;;;19.47;100.00;98395.75;4976363;28;20393;-51
2022/08/18 08:22:58;;;;;;;12.07;7.60;;;;;;;19.61;100.00;98382.41;4979269;28;20243;-51
2022/08/18 08:25:29;;;;;;;8.07;6.70;;;;;;;19.54;99.66;98401.00;4975602;28;20793;-51
2022/08/18 08:28:09;;;;;;;9.70;6.50;;;;;;;19.54;99.82;98408.13;4973322;28;20244;-53
2022/08/18 08:30:44;;;;;;;9.43;6.43;;;;;;;19.42;98.83;98402.69;4971509;28;20282;-51
2022/08/18 08:33:22;;;;;;;7.43;6.33;;;;;;;19.40;97.80;98397.63;4969312;28;20279;-54
2022/08/18 08:35:54;;;;;;;7.50;6.40;;;;;;;19.46;99.00;98378.25;4963197;28;20227;-53
2022/08/18 08:38:27;;;;;;;7.37;6.33;;;;;;;19.59;98.05;98368.59;4962238;28;20707;-51
2022/08/18 08:41:02;;;;;;;8.40;6.17;;;;;;;19.64;95.92;98373.22;4967552;28;20230;-54
2022/08/18 08:43:34;;;;;;;7.37;5.87;;;;;;;19.83;92.19;98374.91;4971364;28;20248;-53
2022/08/18 08:46:10;;;;;;;9.23;5.67;;;;;;;20.06;91.75;98394.69;4968175;28;20226;-51
2022/08/18 08:48:42;;;;;;;6.97;5.67;;;;;;;19.97;90.17;98393.34;4981164;28;20226;-52
2022/08/18 08:51:24;;;;;;;6.87;6.17;;;;;;;20.10;93.30;98400.38;4985714;28;20700;-51
2022/08/18 08:53:55;;;;;;;8.53;5.90;;;;;;;19.99;91.58;98378.06;4973649;28;20292;-51
2022/08/18 08:56:30;;;;;;;9.23;5.40;;;;;;;20.24;89.99;98377.19;4977960;28;20235;-52
2022/08/18 08:59:02;;;;;;;9.03;6.03;;;;;;;20.21;89.55;98378.44;4968978;28;20300;-51
2022/08/18 09:01:34;;;;;;;7.83;6.13;;;;;;;20.01;89.04;98370.69;4964220;28;20238;-52
2022/08/18 09:04:16;;;;;;;6.53;5.87;;;;;;;20.08;91.60;98371.44;4978299;28;20234;-54
2022/08/18 09:06:51;;;;;;;6.83;6.07;;;;;;;20.12;90.66;98364.69;4975045;28;20578;-52
2022/08/18 09:09:44;;;;;;;7.97;6.03;;;;;;;20.21;90.92;98351.94;4970588;28;20229;-51
2022/08/18 09:12:27;;;;;;;9.60;6.47;;;;;;;20.20;90.39;98351.13;4973907;28;20240;-52
2022/08/18 09:15:32;;;;;;;6.93;5.90;;;;;;;20.23;87.92;98351.72;4969815;28;20744;-51
2022/08/18 09:18:32;;;;;;;6.33;5.73;;;;;;;20.11;89.82;98355.13;4972686;28;20330;-52
2022/08/18 09:21:22;;;;;;;8.00;7.07;;;;;;;19.98;91.03;98363.97;4974216;28;20244;-55
2022/08/18 09:23:53;;;;;;;8.40;7.10;;;;;;;19.97;92.06;98378.25;4978875;28;20237;-51
2022/08/18 09:26:38;;;;;;;8.90;6.93;;;;;;;19.88;90.52;98367.13;4959770;28;20578;-51
2022/08/18 09:29:15;;;;;;;9.77;7.47;;;;;;;19.68;91.56;98371.78;4973735;28;20226;-53
2022/08/18 09:31:45;;;;;;;8.33;7.10;;;;;;;19.56;94.72;98369.81;4962377;28;20766;-51
2022/08/18 09:34:37;;;;;;;9.10;8.17;;;;;;;19.39;96.09;98371.38;4970120;28;20279;-53
2022/08/18 09:37:15;;;;;;;11.20;8.10;;;;;;;19.35;95.01;98371.00;4984927;28;20237;-54
2022/08/18 09:42:41;;;;;;;9.97;8.90;;;;;;;19.46;95.59;98394.13;4976325;28;20250;-51
2022/08/18 09:45:30;;;;;;;10.93;8.97;;;;;;;19.59;96.21;98398.50;4980580;28;20669;-52
2022/08/18 09:48:04;;;;;;;11.20;8.13;;;;;;;19.88;95.02;98390.94;4973176;28;20465;-52
2022/08/18 09:50:53;;;;;;;11.10;8.40;;;;;;;20.08;92.81;98405.91;4976422;28;20639;-51
2022/08/18 09:53:54;;;;;;;9.37;8.23;;;;;;;20.06;90.10;98402.66;4981439;28;20318;-53
2022/08/18 09:56:54;;;;;;;13.17;8.67;;;;;;;19.90;91.87;98406.66;4968510;28;20230;-52
2022/08/18 09:59:52;;;;;;;10.17;8.53;;;;;;;20.18;90.84;98406.19;4978944;28;20756;-52
2022/08/18 10:02:55;;;;;;;9.73;8.37;;;;;;;20.27;91.90;98405.91;4977304;28;20246;-52
2022/08/18 10:05:28;;;;;;;10.37;7.97;;;;;;;20.54;90.03;98401.13;4951456;28;20691;-54
2022/08/18 10:08:18;;;;;;;10.73;8.80;;;;;;;20.58;89.83;98401.50;4979490;28;20233;-54
2022/08/18 10:10:51;;;;;;;10.30;8.90;;;;;;;20.38;88.96;98381.31;4980482;28;20244;-51
2022/08/18 10:13:28;;;;;;;11.00;8.37;;;;;;;20.53;88.78;98374.84;4976920;28;20262;-51
2022/08/18 10:16:13;;;;;;;10.70;9.13;;;;;;;20.53;88.75;98369.53;4970475;28;20230;-53
2022/08/18 10:18:55;;;;;;;14.70;9.67;;;;;;;19.97;92.19;98357.06;4972998;28;20222;-52
2022/08/18 10:21:27;;;;;;;12.43;9.20;;;;;;;19.86;91.46;98352.44;4945835;28;20365;-52
2022/08/18 10:23:58;;;;;;;13.67;9.43;;;;;;;20.01;91.93;98337.06;4976843;28;20684;-53
2022/08/18 10:27:08;;;;;;;11.87;8.83;;;;;;;20.43;88.64;98343.56;4979230;28;20254;-52
2022/08/18 10:29:55;;;;;;;10.53;8.67;;;;;;;20.83;86.63;98331.66;4972062;28;20377;-53
2022/08/18 10:32:35;;;;;;;10.37;9.30;;;;;;;21.08;86.26;98332.31;4982391;28;20243;-52
2022/08/18 10:35:02;;;;;;;10.47;9.33;;;;;;;21.34;84.48;98326.81;4975848;28;20235;-53
2022/08/18 10:37:39;;;;;;;10.80;9.70;;;;;;;21.29;83.14;98332.81;4980056;28;20238;-51
2022/08/18 10:40:19;;;;;;;13.90;9.90;;;;;;;21.12;82.66;98331.88;4977678;28;20236;-51
2022/08/18 10:42:52;;;;;;;10.37;8.70;;;;;;;21.13;83.00;98336.94;4975895;28;20245;-52
2022/08/18 10:45:24;;;;;;;11.90;9.60;;;;;;;21.19;84.79;98330.72;4981072;28;20685;-51
2022/08/18 10:48:05;;;;;;;14.13;10.07;;;;;;;21.46;80.89;98327.66;4973121;28;20636;-52
2022/08/18 10:50:41;;;;;;;10.50;8.33;;;;;;;21.57;82.19;98318.06;4974245;28;20224;-54
2022/08/18 10:53:19;;;;;;;13.53;8.53;;;;;;;21.67;80.82;98310.38;4975828;28;20248;-55
2022/08/18 10:55:59;;;;;;;9.93;8.37;;;;;;;21.71;80.41;98307.25;4975212;28;20257;-54
2022/08/18 10:58:40;;;;;;;10.90;8.07;;;;;;;21.69;79.38;98304.84;4962530;28;20701;-54
2022/08/18 11:01:29;;;;;;;12.73;9.00;;;;;;;21.64;81.89;98312.69;4982205;28;20887;-52
2022/08/18 11:04:07;;;;;;;11.07;8.90;;;;;;;21.92;83.43;98332.41;4970846;28;20258;-51
2022/08/18 11:06:41;;;;;;;12.47;10.40;;;;;;;21.84;82.01;98328.28;4972993;28;20282;-52
2022/08/18 11:09:11;;;;;;;10.40;9.40;;;;;;;22.14;79.86;98332.66;4968328;28;20238;-51
2022/08/18 11:11:42;;;;;;;11.73;8.77;;;;;;;22.14;79.36;98335.31;4967966;28;20242;-51
2022/08/18 11:14:23;;;;;;;12.33;10.00;;;;;;;21.82;81.54;98336.47;4979447;28;20227;-52
2022/08/18 11:16:58;;;;;;;10.40;8.73;;;;;;;21.72;84.62;98328.28;4979855;28;20270;-51
2022/08/18 11:19:25;;;;;;;10.03;8.93;;;;;;;21.56;82.54;98326.28;4982853;28;20233;-53
2022/08/18 11:21:53;;;;;;;14.13;11.13;;;;;;;21.40;81.00;98325.91;4976707;28;20239;-53
2022/08/18 11:24:25;;;;;;;10.10;9.03;;;;;;;21.30;82.88;98328.31;4967853;28;20288;-54
2022/08/18 11:26:55;;;;;;;11.57;9.93;;;;;;;21.38;83.08;98320.81;4980387;28;20289;-54
2022/08/18 11:29:27;;;;;;;11.13;9.80;;;;;;;21.48;84.82;98309.66;4976624;28;20274;-54
2022/08/18 11:31:58;;;;;;;14.17;10.73;;;;;;;21.64;83.36;98300.22;4975414;28;20239;-54
2022/08/18 11:34:30;;;;;;;10.57;9.33;;;;;;;22.14;82.06;98297.25;4971446;28;20237;-54
2022/08/18 11:37:15;;;;;;;15.03;10.90;;;;;;;22.56;80.93;98297.84;4973982;28;20225;-54
2022/08/18 11:39:49;;;;;;;10.80;9.47;;;;;;;22.97;80.48;98304.97;4977348;28;20241;-52
2022/08/18 11:42:17;;;;;;;14.47;10.73;;;;;;;23.41;76.90;98310.50;4980512;28;20244;-52
2022/08/18 11:44:45;;;;;;;13.07;10.17;;;;;;;23.80;75.12;98301.75;4977881;28;20314;-54
2022/08/18 11:47:17;;;;;;;16.83;12.73;;;;;;;23.99;70.46;98302.28;4965371;28;20271;-52
2022/08/18 11:49:52;;;;;;;18.03;13.87;;;;;;;24.16;68.83;98296.09;4978197;28;20701;-54
2022/08/18 11:52:24;;;;;;;18.43;16.37;;;;;;;23.66;69.71;98287.94;4971172;28;20239;-53
2022/08/18 11:54:52;;;;;;;16.43;14.50;;;;;;;23.35;72.37;98271.50;4976876;28;20303;-54
2022/08/18 11:57:39;;;;;;;18.10;14.03;;;;;;;23.78;72.77;98276.38;4978647;28;20236;-52
2022/08/18 12:00:41;;;;;;;19.07;14.90;;;;;;;24.21;70.19;98282.00;4973066;28;20307;-53
2022/08/18 12:03:15;;;;;;;17.30;15.40;;;;;;;24.12;66.71;98281.66;4964634;28;20241;-51
2022/08/18 12:05:45;;;;;;;16.27;14.67;;;;;;;23.91;71.43;98275.22;4970044;28;20233;-51
2022/08/18 12:08:18;;;;;;;15.07;13.57;;;;;;;24.28;69.78;98274.63;4966998;28;20605;-52